createdAt,value
2024-05-09T00:01:02.334Z,14.43
2024-05-09T00:03:29.891Z,11.97
2024-05-09T00:05:57.395Z,11.63
2024-05-09T00:08:24.972Z,11.50
2024-05-09T00:10:52.676Z,13.13
2024-05-09T00:13:20.132Z,15.32
2024-05-09T00:15:47.676Z,11.60
2024-05-09T00:18:15.388Z,13.27
2024-05-09T00:20:42.857Z,14.73
2024-05-09T00:23:10.939Z,19.37
2024-05-09T00:25:38.057Z,15.10
2024-05-09T00:28:05.655Z,13.70
2024-05-09T00:30:35.962Z,13.63
2024-05-09T00:33:01.041Z,12.70
2024-05-09T00:35:28.541Z,12.03
2024-05-09T00:37:55.842Z,13.10
2024-05-09T00:40:31.158Z,12.27
2024-05-09T00:42:50.986Z,12.40
2024-05-09T00:45:18.582Z,13.07
2024-05-09T00:47:47.037Z,12.73
2024-05-09T00:50:19.385Z,13.20
2024-05-09T00:52:42.008Z,12.67
2024-05-09T00:55:09.582Z,12.60
2024-05-09T00:57:37.133Z,12.70
2024-05-09T01:00:07.717Z,13.20
2024-05-09T01:02:34.014Z,13.57
2024-05-09T01:05:01.509Z,12.63
2024-05-09T01:07:28.966Z,12.60
2024-05-09T01:09:56.588Z,12.93
2024-05-09T01:12:24.244Z,13.00
2024-05-09T01:14:51.679Z,12.33
2024-05-09T01:17:19.357Z,12.70
2024-05-09T01:19:46.893Z,12.23
2024-05-09T01:22:14.385Z,12.53
2024-05-09T01:24:41.995Z,12.07
2024-05-09T01:27:09.568Z,12.30
2024-05-09T01:29:37.199Z,12.67
2024-05-09T01:32:04.867Z,11.17
2024-05-09T01:34:32.281Z,12.40
2024-05-09T01:36:59.836Z,11.33
2024-05-09T01:39:27.416Z,11.97
2024-05-09T01:41:54.974Z,11.50
2024-05-09T01:44:22.635Z,11.97
2024-05-09T01:46:50.110Z,12.77
2024-05-09T01:49:17.823Z,11.63
2024-05-09T01:51:45.150Z,11.73
2024-05-09T01:54:12.762Z,11.93
2024-05-09T01:56:40.337Z,11.80
2024-05-09T01:59:07.877Z,11.80
2024-05-09T02:01:55.587Z,11.93
2024-05-09T02:04:03.625Z,11.70
2024-05-09T02:06:30.980Z,14.43
2024-05-09T02:08:58.627Z,14.43
2024-05-09T02:11:26.370Z,15.25
2024-05-09T02:13:53.906Z,12.40
2024-05-09T02:16:21.513Z,12.73
2024-05-09T02:18:49.328Z,11.63
2024-05-09T02:21:16.781Z,11.60
2024-05-09T02:23:44.349Z,11.80
2024-05-09T02:26:11.887Z,11.70
2024-05-09T02:28:39.420Z,13.50
2024-05-09T02:31:07.055Z,13.63
2024-05-09T02:33:34.818Z,14.97
2024-05-09T02:36:02.180Z,14.53
2024-05-09T02:38:30.755Z,14.37
2024-05-09T02:40:58.161Z,14.00
2024-05-09T02:43:25.654Z,16.83
2024-05-09T02:45:53.248Z,14.90
2024-05-09T02:48:21.080Z,14.17
2024-05-09T02:50:48.480Z,13.77
2024-05-09T02:53:16.047Z,13.47
2024-05-09T02:55:43.665Z,13.33
2024-05-09T02:58:11.195Z,17.42
2024-05-09T03:00:41.406Z,14.33
2024-05-09T03:03:10.579Z,13.47
2024-05-09T03:05:36.864Z,13.70
2024-05-09T03:08:04.233Z,15.00
2024-05-09T03:10:36.113Z,18.83
2024-05-09T03:12:59.166Z,16.97
2024-05-09T03:15:26.730Z,17.30
2024-05-09T03:17:54.428Z,16.07
2024-05-09T03:20:27.355Z,17.80
2024-05-09T03:22:49.595Z,16.23
2024-05-09T03:25:17.067Z,16.30
2024-05-09T03:27:44.626Z,17.20
2024-05-09T03:32:40.032Z,17.87
2024-05-09T03:35:07.620Z,18.60
2024-05-09T03:37:35.240Z,18.77
2024-05-09T03:40:02.872Z,17.57
2024-05-09T03:42:30.318Z,17.47
2024-05-09T03:44:57.920Z,16.70
2024-05-09T03:47:25.624Z,16.90
2024-05-09T03:49:53.027Z,15.57
2024-05-09T03:52:20.881Z,15.17
2024-05-09T03:54:48.419Z,14.87
2024-05-09T03:57:15.972Z,19.35
2024-05-09T03:59:43.614Z,15.87
2024-05-09T04:02:11.264Z,14.57
2024-05-09T04:04:38.771Z,13.73
2024-05-09T04:07:06.385Z,12.77
2024-05-09T04:09:34.386Z,11.50
2024-05-09T04:12:02.054Z,15.02
2024-05-09T04:14:29.729Z,12.23
2024-05-09T04:16:57.190Z,14.00
2024-05-09T04:19:24.972Z,15.23
2024-05-09T04:21:52.424Z,15.67
2024-05-09T04:24:19.969Z,15.03
2024-05-09T04:26:47.565Z,16.95
2024-05-09T04:29:15.234Z,14.07
2024-05-09T04:31:42.742Z,14.23
2024-05-09T04:34:10.486Z,12.70
2024-05-09T04:36:41.608Z,16.80
2024-05-09T04:39:06.311Z,13.37
2024-05-09T04:41:33.902Z,14.37
2024-05-09T04:44:01.503Z,12.70
2024-05-09T04:46:29.118Z,12.10
2024-05-09T04:48:56.767Z,12.30
2024-05-09T04:51:24.310Z,15.65
2024-05-09T04:53:51.876Z,13.87
2024-05-09T04:56:19.606Z,13.53
2024-05-09T04:58:47.164Z,15.73
2024-05-09T05:01:14.739Z,15.30
2024-05-09T05:03:42.604Z,19.00
2024-05-09T05:06:09.882Z,22.00
2024-05-09T05:08:37.636Z,17.70
2024-05-09T05:11:05.882Z,20.10
2024-05-09T05:13:33.403Z,18.37
2024-05-09T05:16:01.030Z,18.87
2024-05-09T05:18:28.803Z,17.60
2024-05-09T05:20:56.331Z,16.80
2024-05-09T05:23:23.936Z,14.53
2024-05-09T05:25:51.392Z,15.90
2024-05-09T05:28:18.938Z,15.67
2024-05-09T05:30:46.476Z,15.73
2024-05-09T05:33:14.295Z,15.50
2024-05-09T05:35:41.716Z,15.13
2024-05-09T05:38:09.255Z,15.47
2024-05-09T05:40:40.378Z,13.80
2024-05-09T05:43:06.803Z,15.10
2024-05-09T05:45:34.407Z,16.27
2024-05-09T05:48:02.226Z,16.47
2024-05-09T05:50:35.689Z,15.60
2024-05-09T05:52:57.358Z,15.77
2024-05-09T05:55:24.890Z,15.80
2024-05-09T05:57:52.539Z,15.67
2024-05-09T06:00:29.250Z,15.70
2024-05-09T06:02:47.788Z,15.13
2024-05-09T06:05:15.339Z,15.70
2024-05-09T06:07:42.875Z,14.60
2024-05-09T06:10:17.306Z,15.03
2024-05-09T06:12:37.996Z,18.73
2024-05-09T06:15:05.747Z,16.00
2024-05-09T06:17:33.496Z,15.73
2024-05-09T06:20:00.971Z,15.80
2024-05-09T06:22:28.495Z,15.97
2024-05-09T06:24:56.043Z,16.30
2024-05-09T06:27:23.640Z,16.50
2024-05-09T06:29:51.286Z,15.93
2024-05-09T06:32:18.914Z,16.23
2024-05-09T06:34:46.676Z,15.10
2024-05-09T06:37:14.002Z,15.97
2024-05-09T06:39:41.555Z,20.10
2024-05-09T06:42:09.227Z,17.43
2024-05-09T06:44:36.948Z,22.13
2024-05-09T06:47:04.775Z,21.07
2024-05-09T06:49:32.345Z,22.43
2024-05-09T06:51:59.896Z,20.93
2024-05-09T06:54:28.375Z,22.60
2024-05-09T06:56:56.735Z,22.60
2024-05-09T06:59:24.379Z,21.63
2024-05-09T07:01:51.887Z,21.53
2024-05-09T07:04:19.523Z,21.17
2024-05-09T07:06:47.000Z,22.47
2024-05-09T07:09:14.555Z,22.23
2024-05-09T07:11:42.308Z,23.33
2024-05-09T07:14:09.817Z,23.67
2024-05-09T07:16:37.522Z,23.63
2024-05-09T07:19:05.449Z,22.43
2024-05-09T07:21:32.750Z,23.33
2024-05-09T07:24:00.385Z,23.20
2024-05-09T07:26:28.047Z,23.13
2024-05-09T07:28:55.490Z,22.57
2024-05-09T07:31:23.023Z,21.57
2024-05-09T07:33:50.815Z,22.87
2024-05-09T07:36:18.349Z,22.30
2024-05-09T07:38:46.002Z,25.27
2024-05-09T07:41:13.567Z,22.03
2024-05-09T07:43:42.314Z,21.60
2024-05-09T07:47:13.887Z,20.77
2024-05-09T07:50:34.610Z,21.07
2024-05-09T07:53:42.242Z,19.83
2024-05-09T07:56:02.785Z,19.57
2024-05-09T07:58:30.109Z,18.13
2024-05-09T08:00:57.830Z,18.43
2024-05-09T08:03:25.375Z,19.83
2024-05-09T08:05:53.070Z,19.23
2024-05-09T08:08:20.486Z,17.47
2024-05-09T08:10:48.907Z,16.77
2024-05-09T08:13:17.267Z,15.07
2024-05-09T08:15:44.973Z,16.20
2024-05-09T08:18:12.584Z,15.83
2024-05-09T08:20:41.268Z,15.77
2024-05-09T08:23:08.877Z,15.57
2024-05-09T08:25:36.537Z,16.07
2024-05-09T08:28:04.154Z,15.20
2024-05-09T08:30:36.790Z,16.43
2024-05-09T08:32:59.292Z,17.37
2024-05-09T08:35:26.818Z,16.27
2024-05-09T08:37:54.418Z,16.30
2024-05-09T08:40:30.648Z,14.77
2024-05-09T08:42:49.599Z,13.43
2024-05-09T08:45:17.448Z,12.17
2024-05-09T08:47:47.805Z,12.90
2024-05-09T08:50:28.545Z,11.30
2024-05-09T08:52:42.882Z,11.17
2024-05-09T08:55:10.563Z,9.73
2024-05-09T08:57:38.810Z,9.13
2024-05-09T09:00:10.204Z,8.80
2024-05-09T09:02:34.423Z,9.23
2024-05-09T09:05:07.663Z,8.50
2024-05-09T09:07:35.927Z,9.33
2024-05-09T09:10:05.580Z,8.07
2024-05-09T09:12:31.038Z,7.50
2024-05-09T09:14:58.612Z,7.53
2024-05-09T09:17:27.131Z,6.70
2024-05-09T09:19:55.454Z,6.00
2024-05-09T09:22:22.905Z,4.53
2024-05-09T09:24:50.501Z,4.23
2024-05-09T09:27:17.999Z,4.97
2024-05-09T09:29:45.582Z,3.73
2024-05-09T09:32:13.213Z,3.40
2024-05-09T09:34:40.814Z,3.58
2024-05-09T09:37:08.429Z,3.23
2024-05-09T09:39:35.958Z,3.20
2024-05-09T09:42:03.435Z,4.30
2024-05-09T09:44:30.976Z,4.23
2024-05-09T09:46:58.636Z,3.53
2024-05-09T09:49:28.791Z,3.13
2024-05-09T09:51:56.312Z,3.65
2024-05-09T09:54:23.823Z,2.97
2024-05-09T09:56:51.378Z,2.90
2024-05-09T09:59:18.903Z,3.87
2024-05-09T10:01:46.564Z,3.37
2024-05-09T10:04:14.158Z,3.37
2024-05-09T10:06:41.640Z,3.17
2024-05-09T10:09:09.180Z,2.27
2024-05-09T10:11:45.081Z,2.70
2024-05-09T10:14:04.385Z,2.78
2024-05-09T10:16:32.046Z,3.35
2024-05-09T10:18:59.827Z,2.30
2024-05-09T10:21:27.236Z,2.27
2024-05-09T10:23:57.508Z,3.20
2024-05-09T10:26:31.267Z,3.27
2024-05-09T10:28:58.798Z,2.03
2024-05-09T10:31:30.054Z,2.20
2024-05-09T10:33:57.723Z,2.10
2024-05-09T10:36:27.787Z,2.37
2024-05-09T10:38:55.351Z,2.87
2024-05-09T10:41:23.194Z,2.63
2024-05-09T10:43:51.496Z,2.07
2024-05-09T10:46:19.492Z,2.50
2024-05-09T10:48:46.736Z,2.20
2024-05-09T10:51:14.098Z,2.30
2024-05-09T10:53:42.451Z,2.00
2024-05-09T10:56:09.997Z,2.43
2024-05-09T10:58:37.536Z,2.80
2024-05-09T11:01:07.264Z,2.13
2024-05-09T11:03:33.606Z,2.40
2024-05-09T11:06:00.985Z,1.57
2024-05-09T11:08:28.603Z,1.93
2024-05-09T11:10:56.303Z,1.83
2024-05-09T11:13:29.703Z,2.10
2024-05-09T11:15:57.372Z,1.77
2024-05-09T11:18:26.194Z,2.00
2024-05-09T11:20:53.256Z,1.70
2024-05-09T11:23:23.512Z,1.60
2024-05-09T11:25:56.812Z,1.50
2024-05-09T11:28:25.164Z,1.93
2024-05-09T11:30:52.757Z,1.70
2024-05-09T11:33:20.429Z,1.73
2024-05-09T11:35:47.932Z,1.80
2024-05-09T11:38:15.490Z,1.93
2024-05-09T11:40:43.187Z,1.50
2024-05-09T11:43:10.614Z,1.60
2024-05-09T11:45:38.959Z,4.47
2024-05-09T11:48:06.657Z,2.30
2024-05-09T11:50:35.914Z,1.73
2024-05-09T11:53:01.618Z,1.87
2024-05-09T11:55:29.329Z,1.90
2024-05-09T11:57:56.744Z,1.60
2024-05-09T12:00:33.762Z,1.87
2024-05-09T12:02:51.886Z,1.63
2024-05-09T12:05:19.632Z,2.23
2024-05-09T12:07:46.923Z,1.73
2024-05-09T12:10:19.597Z,1.70
2024-05-09T12:12:42.017Z,1.80
2024-05-09T12:15:09.556Z,1.50
2024-05-09T12:17:37.167Z,1.90
2024-05-09T12:20:09.024Z,1.80
2024-05-09T12:22:33.921Z,1.83
2024-05-09T12:25:01.507Z,1.80
2024-05-09T12:27:29.013Z,1.90
2024-05-09T12:29:57.334Z,1.83
2024-05-09T12:32:25.060Z,1.50
2024-05-09T12:34:52.454Z,2.00
2024-05-09T12:37:20.104Z,1.87
2024-05-09T12:39:47.610Z,1.80
2024-05-09T12:42:26.345Z,2.17
2024-05-09T12:44:42.698Z,2.20
2024-05-09T12:47:11.004Z,1.60
2024-05-09T12:49:38.707Z,1.90
2024-05-09T12:52:06.317Z,1.73
2024-05-09T12:54:33.830Z,1.90
2024-05-09T12:57:01.318Z,1.73
2024-05-09T12:59:29.662Z,1.70
2024-05-09T13:01:59.665Z,1.80
2024-05-09T13:04:24.945Z,1.70
2024-05-09T13:06:52.382Z,1.90
2024-05-09T13:09:19.849Z,1.80
2024-05-09T13:11:47.453Z,1.87
2024-05-09T13:14:14.944Z,1.70
2024-05-09T13:16:42.582Z,2.20
2024-05-09T13:19:10.069Z,1.90
2024-05-09T13:21:37.632Z,2.13
2024-05-09T13:24:05.167Z,1.93
2024-05-09T13:26:32.702Z,2.00
2024-05-09T13:29:00.297Z,1.90
2024-05-09T13:31:27.894Z,1.87
2024-05-09T13:33:58.180Z,2.22
2024-05-09T13:36:26.279Z,1.80
2024-05-09T13:38:54.576Z,1.83
2024-05-09T13:41:22.112Z,1.73
2024-05-09T13:43:49.692Z,1.80
2024-05-09T13:46:17.349Z,1.90
2024-05-09T13:48:44.928Z,2.20
2024-05-09T13:51:12.433Z,2.27
2024-05-09T13:53:40.799Z,2.00
2024-05-09T13:56:08.416Z,1.60
2024-05-09T13:58:35.998Z,2.20
2024-05-09T14:01:03.734Z,1.93
2024-05-09T14:03:31.611Z,2.23
2024-05-09T14:05:59.135Z,2.33
2024-05-09T14:08:28.345Z,2.23
2024-05-09T14:10:56.046Z,2.67
2024-05-09T14:13:23.632Z,2.20
2024-05-09T14:15:51.519Z,2.10
2024-05-09T14:18:19.182Z,2.13
2024-05-09T14:20:46.582Z,1.95
2024-05-09T14:23:14.204Z,1.97
2024-05-09T14:25:43.435Z,1.93
2024-05-09T14:28:09.645Z,2.30
2024-05-09T14:30:38.499Z,1.80
2024-05-09T14:33:05.411Z,2.03
2024-05-09T14:35:32.449Z,2.20
2024-05-09T14:38:00.097Z,2.23
2024-05-09T14:40:37.276Z,1.97
2024-05-09T14:42:55.367Z,2.23
2024-05-09T14:45:23.087Z,1.87
2024-05-09T14:47:50.811Z,2.30
2024-05-09T14:50:27.307Z,2.07
2024-05-09T14:52:45.789Z,2.20
2024-05-09T14:55:13.392Z,2.07
2024-05-09T14:57:40.926Z,2.20
2024-05-09T15:00:17.326Z,1.90
2024-05-09T15:02:36.216Z,2.08
2024-05-09T15:05:04.058Z,2.13
2024-05-09T15:07:32.184Z,2.20
2024-05-09T15:09:59.745Z,1.90
2024-05-09T15:12:27.322Z,2.07
2024-05-09T15:14:55.636Z,1.50
2024-05-09T15:17:23.257Z,1.83
2024-05-09T15:19:51.804Z,1.80
2024-05-09T15:22:19.296Z,1.70
2024-05-09T15:24:46.810Z,1.90
2024-05-09T15:27:14.453Z,1.87
2024-05-09T15:29:42.226Z,1.80
2024-05-09T15:32:09.833Z,1.63
2024-05-09T15:34:37.482Z,1.90
2024-05-09T15:37:04.947Z,1.60
2024-05-09T15:39:32.610Z,1.80
2024-05-09T15:42:00.286Z,1.87
2024-05-09T15:44:28.939Z,2.03
2024-05-09T15:46:56.528Z,2.10
2024-05-09T15:49:25.006Z,1.80
2024-05-09T15:51:52.549Z,1.90
2024-05-09T15:54:21.526Z,1.47
2024-05-09T15:56:48.403Z,2.07
2024-05-09T15:59:16.830Z,1.73
2024-05-09T16:01:44.414Z,1.87
2024-05-09T16:04:12.176Z,2.00
2024-05-09T16:06:39.676Z,1.93
2024-05-09T16:09:07.210Z,2.00
2024-05-09T16:11:34.938Z,1.57
2024-05-09T16:14:02.338Z,2.10
2024-05-09T16:16:29.946Z,1.83
2024-05-09T16:18:57.562Z,2.10
2024-05-09T16:21:25.046Z,2.10
2024-05-09T16:23:52.649Z,2.03
2024-05-09T16:26:20.214Z,1.70
2024-05-09T16:28:47.837Z,1.63
2024-05-09T16:31:15.443Z,1.53
2024-05-09T16:33:43.073Z,1.63
2024-05-09T16:36:10.495Z,2.10
2024-05-09T16:38:38.084Z,2.22
2024-05-09T16:41:05.733Z,1.87
2024-05-09T16:43:34.825Z,2.00
2024-05-09T16:46:02.409Z,1.67
2024-05-09T16:48:30.182Z,1.80
2024-05-09T16:50:58.543Z,1.87
2024-05-09T16:53:26.186Z,2.10
2024-05-09T16:55:53.750Z,1.77
2024-05-09T16:58:21.597Z,1.67
2024-05-09T17:00:49.240Z,1.90
2024-05-09T17:03:17.032Z,2.10
2024-05-09T17:05:44.483Z,1.97
2024-05-09T17:08:12.084Z,2.03
2024-05-09T17:10:39.917Z,1.93
2024-05-09T17:13:08.224Z,1.90
2024-05-09T17:15:35.492Z,2.00
2024-05-09T17:18:02.704Z,2.27
2024-05-09T17:20:34.513Z,1.63
2024-05-09T17:22:58.722Z,1.73
2024-05-09T17:25:26.790Z,1.80
2024-05-09T17:27:55.269Z,1.77
2024-05-09T17:30:29.152Z,1.90
2024-05-09T17:32:50.576Z,1.67
2024-05-09T17:35:18.254Z,1.80
2024-05-09T17:37:45.964Z,1.80
2024-05-09T17:40:16.972Z,2.10
2024-05-09T17:42:41.482Z,2.03
2024-05-09T17:45:09.169Z,1.87
2024-05-09T17:47:37.179Z,2.20
2024-05-09T17:50:07.382Z,1.77
2024-05-09T17:52:32.471Z,1.67
2024-05-09T17:55:00.178Z,1.90
2024-05-09T17:57:27.604Z,1.90
2024-05-09T17:59:55.335Z,2.17
2024-05-09T18:02:23.065Z,1.93
2024-05-09T18:04:50.730Z,2.15
2024-05-09T18:07:18.285Z,2.03
2024-05-09T18:09:45.931Z,1.93
2024-05-09T18:12:13.614Z,2.20
2024-05-09T18:14:41.134Z,2.07
2024-05-09T18:17:09.557Z,2.20
2024-05-09T18:19:38.252Z,1.83
2024-05-09T18:22:06.052Z,2.27
2024-05-09T18:24:33.613Z,2.37
2024-05-09T18:27:01.194Z,2.23
2024-05-09T18:29:28.826Z,2.37
2024-05-09T18:31:56.417Z,1.90
2024-05-09T18:34:24.906Z,2.20
2024-05-09T18:36:52.303Z,2.30
2024-05-09T18:39:19.930Z,1.97
2024-05-09T18:41:47.391Z,2.50
2024-05-09T18:44:14.927Z,2.43
2024-05-09T18:46:43.244Z,2.77
2024-05-09T18:49:10.902Z,2.83
2024-05-09T18:51:38.386Z,2.70
2024-05-09T18:54:05.907Z,2.40
2024-05-09T18:56:33.453Z,2.50
2024-05-09T18:59:00.995Z,2.60
2024-05-09T19:01:28.782Z,2.37
2024-05-09T19:03:56.500Z,2.37
2024-05-09T19:06:24.843Z,2.30
2024-05-09T19:08:51.348Z,2.17
2024-05-09T19:11:18.930Z,2.40
2024-05-09T19:13:46.465Z,2.10
2024-05-09T19:16:14.120Z,2.63
2024-05-09T19:18:41.861Z,2.77
2024-05-09T19:21:09.213Z,2.33
2024-05-09T19:23:38.429Z,2.00
2024-05-09T19:26:04.267Z,2.33
2024-05-09T19:28:31.860Z,1.97
2024-05-09T19:30:59.445Z,2.03
2024-05-09T19:33:26.992Z,2.13
2024-05-09T19:35:54.540Z,2.30
2024-05-09T19:38:22.169Z,2.00
2024-05-09T19:40:49.889Z,2.00
2024-05-09T19:43:18.065Z,2.17
2024-05-09T19:45:45.631Z,3.00
2024-05-09T19:48:13.265Z,2.53
2024-05-09T19:50:43.804Z,2.47
2024-05-09T19:53:08.362Z,2.43
2024-05-09T19:55:35.841Z,2.37
2024-05-09T19:58:05.334Z,2.57
2024-05-09T20:00:35.722Z,2.70
2024-05-09T20:02:58.580Z,7.47
2024-05-09T20:05:28.515Z,8.27
2024-05-09T20:07:54.440Z,6.37
2024-05-09T20:10:26.202Z,3.40
2024-05-09T20:12:49.612Z,2.60
2024-05-09T20:15:17.867Z,2.27
2024-05-09T20:17:45.505Z,2.07
2024-05-09T20:20:23.517Z,2.40
2024-05-09T20:22:40.536Z,2.47
2024-05-09T20:25:08.150Z,2.23
2024-05-09T20:27:35.682Z,2.45
2024-05-09T20:30:07.896Z,2.65
2024-05-09T20:32:30.905Z,3.03
2024-05-09T20:34:58.321Z,2.60
2024-05-09T20:37:25.871Z,2.60
2024-05-09T20:39:53.506Z,2.13
2024-05-09T20:42:21.000Z,2.43
2024-05-09T20:44:48.582Z,2.30
2024-05-09T20:47:16.147Z,2.60
2024-05-09T20:49:43.840Z,2.60
2024-05-09T20:52:11.400Z,2.30
2024-05-09T20:54:38.910Z,2.75
2024-05-09T20:57:06.431Z,2.23
2024-05-09T20:59:34.004Z,2.03
2024-05-09T21:02:01.808Z,2.20
2024-05-09T21:04:29.294Z,2.40
2024-05-09T21:06:56.707Z,2.83
2024-05-09T21:09:24.980Z,3.00
2024-05-09T21:11:52.804Z,2.90
2024-05-09T21:14:20.312Z,3.50
2024-05-09T21:16:48.102Z,3.03
2024-05-09T21:19:16.298Z,3.30
2024-05-09T21:21:43.818Z,3.37
2024-05-09T21:24:11.330Z,3.10
2024-05-09T21:26:38.863Z,2.90
2024-05-09T21:29:06.458Z,3.07
2024-05-09T21:31:34.052Z,3.00
2024-05-09T21:34:01.686Z,3.00
2024-05-09T21:36:29.138Z,3.13
2024-05-09T21:38:56.680Z,3.47
2024-05-09T21:41:24.198Z,3.10
2024-05-09T21:43:52.541Z,2.93
2024-05-09T21:46:20.113Z,2.57
2024-05-09T21:48:47.656Z,3.00
2024-05-09T21:51:15.961Z,3.47
2024-05-09T21:53:43.510Z,3.27
2024-05-09T21:56:11.044Z,2.87
2024-05-09T21:58:38.616Z,3.55
2024-05-09T22:01:06.287Z,3.30
2024-05-09T22:03:33.995Z,3.33
2024-05-09T22:06:01.237Z,2.60
2024-05-09T22:08:29.551Z,2.53
2024-05-09T22:10:57.195Z,3.40
2024-05-09T22:13:24.806Z,2.90
2024-05-09T22:15:52.233Z,2.63
2024-05-09T22:18:20.600Z,2.70
2024-05-09T22:20:48.091Z,3.23
2024-05-09T22:23:15.772Z,3.00
2024-05-09T22:25:43.203Z,3.25
2024-05-09T22:28:10.979Z,2.97
2024-05-09T22:30:39.963Z,3.10
2024-05-09T22:33:06.163Z,3.30
2024-05-09T22:35:33.507Z,2.80
2024-05-09T22:38:01.013Z,3.60
2024-05-09T22:40:38.450Z,3.47
2024-05-09T22:42:57.049Z,3.47
2024-05-09T22:45:24.480Z,3.27
2024-05-09T22:47:52.138Z,3.80
2024-05-09T22:50:26.688Z,3.57
2024-05-09T22:52:47.139Z,3.60
2024-05-09T22:55:14.716Z,3.90
2024-05-09T22:57:42.289Z,3.87
2024-05-09T23:00:12.437Z,3.80
2024-05-09T23:02:37.456Z,4.00
2024-05-09T23:05:05.081Z,3.80
2024-05-09T23:07:32.502Z,3.57
2024-05-09T23:10:00.105Z,5.00
2024-05-09T23:12:27.582Z,3.63
2024-05-09T23:14:55.140Z,3.50
2024-05-09T23:17:23.563Z,4.10
2024-05-09T23:19:51.017Z,4.50
2024-05-09T23:22:18.598Z,4.40
2024-05-09T23:24:46.155Z,4.20
2024-05-09T23:27:14.434Z,4.53
2024-05-09T23:29:41.990Z,4.43
2024-05-09T23:32:09.539Z,5.15
2024-05-09T23:34:37.119Z,4.20
2024-05-09T23:37:04.691Z,4.27
2024-05-09T23:39:32.166Z,4.57
2024-05-09T23:42:00.496Z,4.83
2024-05-09T23:44:28.038Z,4.90
2024-05-09T23:46:55.662Z,4.93
2024-05-09T23:49:23.173Z,4.63
2024-05-09T23:51:50.706Z,4.10
2024-05-09T23:54:18.236Z,4.10
2024-05-09T23:56:46.592Z,4.43
2024-05-09T23:59:14.127Z,4.27
